sensor_id;sensor_type;location;lat;lon;timestamp;P1;durP1;ratioP1;P2;durP2;ratioP2
44110;SDS011;29774;52.664;5.074;2023-04-03T00:01:35;2.65;;;0.95;;
44110;SDS011;29774;52.664;5.074;2023-04-03T00:04:03;1.38;;;0.90;;
44110;SDS011;29774;52.664;5.074;2023-04-03T00:06:29;1.20;;;0.75;;
44110;SDS011;29774;52.664;5.074;2023-04-03T00:08:55;1.45;;;1.00;;
44110;SDS011;29774;52.664;5.074;2023-04-03T00:11:21;1.73;;;1.00;;
44110;SDS011;29774;52.664;5.074;2023-04-03T00:13:47;2.22;;;1.00;;
44110;SDS011;29774;52.664;5.074;2023-04-03T00:16:12;2.15;;;0.90;;
44110;SDS011;29774;52.664;5.074;2023-04-03T00:18:38;2.72;;;0.90;;
44110;SDS011;29774;52.664;5.074;2023-04-03T00:21:05;2.05;;;0.90;;
44110;SDS011;29774;52.664;5.074;2023-04-03T00:23:31;1.35;;;0.90;;
44110;SDS011;29774;52.664;5.074;2023-04-03T00:25:56;3.72;;;1.10;;
44110;SDS011;29774;52.664;5.074;2023-04-03T00:28:22;1.20;;;1.00;;
44110;SDS011;29774;52.664;5.074;2023-04-03T00:30:48;1.15;;;0.93;;
44110;SDS011;29774;52.664;5.074;2023-04-03T00:33:15;1.60;;;0.82;;
44110;SDS011;29774;52.664;5.074;2023-04-03T00:35:41;2.65;;;1.10;;
44110;SDS011;29774;52.664;5.074;2023-04-03T00:38:06;3.40;;;1.10;;
44110;SDS011;29774;52.664;5.074;2023-04-03T00:40:36;1.85;;;1.10;;
44110;SDS011;29774;52.664;5.074;2023-04-03T00:43:13;2.95;;;1.10;;
44110;SDS011;29774;52.664;5.074;2023-04-03T00:45:45;2.60;;;1.08;;
44110;SDS011;29774;52.664;5.074;2023-04-03T00:48:14;1.55;;;0.98;;
44110;SDS011;29774;52.664;5.074;2023-04-03T00:50:43;1.67;;;0.90;;
44110;SDS011;29774;52.664;5.074;2023-04-03T00:53:14;2.95;;;1.00;;
44110;SDS011;29774;52.664;5.074;2023-04-03T00:55:48;5.55;;;1.20;;
44110;SDS011;29774;52.664;5.074;2023-04-03T00:58:15;2.22;;;1.10;;
44110;SDS011;29774;52.664;5.074;2023-04-03T01:00:44;2.90;;;0.90;;
44110;SDS011;29774;52.664;5.074;2023-04-03T01:03:14;2.45;;;1.25;;
44110;SDS011;29774;52.664;5.074;2023-04-03T01:05:40;1.27;;;0.98;;
44110;SDS011;29774;52.664;5.074;2023-04-03T01:08:05;5.03;;;1.15;;
44110;SDS011;29774;52.664;5.074;2023-04-03T01:10:31;2.55;;;1.08;;
44110;SDS011;29774;52.664;5.074;2023-04-03T01:12:57;4.45;;;1.40;;
44110;SDS011;29774;52.664;5.074;2023-04-03T01:15:26;2.53;;;1.10;;
44110;SDS011;29774;52.664;5.074;2023-04-03T01:17:56;3.47;;;1.25;;
44110;SDS011;29774;52.664;5.074;2023-04-03T01:25:37;2.67;;;1.20;;
44110;SDS011;29774;52.664;5.074;2023-04-03T01:28:04;4.25;;;1.23;;
44110;SDS011;29774;52.664;5.074;2023-04-03T01:30:32;1.48;;;1.00;;
44110;SDS011;29774;52.664;5.074;2023-04-03T01:33:01;2.47;;;1.10;;
44110;SDS011;29774;52.664;5.074;2023-04-03T01:35:26;3.88;;;1.00;;
44110;SDS011;29774;52.664;5.074;2023-04-03T01:37:52;3.53;;;1.40;;
44110;SDS011;29774;52.664;5.074;2023-04-03T01:40:18;3.25;;;1.40;;
44110;SDS011;29774;52.664;5.074;2023-04-03T01:42:44;2.15;;;1.20;;
44110;SDS011;29774;52.664;5.074;2023-04-03T01:45:10;3.83;;;1.48;;
44110;SDS011;29774;52.664;5.074;2023-04-03T01:47:36;3.65;;;1.35;;
44110;SDS011;29774;52.664;5.074;2023-04-03T01:50:01;3.92;;;1.05;;
44110;SDS011;29774;52.664;5.074;2023-04-03T01:52:27;3.95;;;1.10;;
44110;SDS011;29774;52.664;5.074;2023-04-03T01:54:53;1.95;;;1.30;;
44110;SDS011;29774;52.664;5.074;2023-04-03T01:57:18;1.55;;;1.10;;
44110;SDS011;29774;52.664;5.074;2023-04-03T01:59:44;2.13;;;1.38;;
44110;SDS011;29774;52.664;5.074;2023-04-03T02:02:09;3.65;;;1.40;;
44110;SDS011;29774;52.664;5.074;2023-04-03T02:04:37;2.15;;;1.20;;
44110;SDS011;29774;52.664;5.074;2023-04-03T02:07:03;2.83;;;1.20;;
44110;SDS011;29774;52.664;5.074;2023-04-03T02:09:28;3.85;;;1.10;;
44110;SDS011;29774;52.664;5.074;2023-04-03T02:11:54;2.35;;;0.88;;
44110;SDS011;29774;52.664;5.074;2023-04-03T02:14:20;3.60;;;1.35;;
44110;SDS011;29774;52.664;5.074;2023-04-03T02:16:46;3.63;;;1.20;;
44110;SDS011;29774;52.664;5.074;2023-04-03T02:19:12;1.52;;;0.93;;
44110;SDS011;29774;52.664;5.074;2023-04-03T02:21:38;3.53;;;1.00;;
44110;SDS011;29774;52.664;5.074;2023-04-03T02:24:03;2.72;;;1.10;;
44110;SDS011;29774;52.664;5.074;2023-04-03T02:26:30;2.28;;;1.30;;
44110;SDS011;29774;52.664;5.074;2023-04-03T02:28:55;2.65;;;1.20;;
44110;SDS011;29774;52.664;5.074;2023-04-03T02:31:21;1.65;;;1.10;;
44110;SDS011;29774;52.664;5.074;2023-04-03T02:33:47;1.73;;;1.25;;
44110;SDS011;29774;52.664;5.074;2023-04-03T02:36:12;3.42;;;1.33;;
44110;SDS011;29774;52.664;5.074;2023-04-03T02:38:38;3.78;;;1.40;;
44110;SDS011;29774;52.664;5.074;2023-04-03T02:41:05;3.80;;;1.27;;
44110;SDS011;29774;52.664;5.074;2023-04-03T02:43:32;5.10;;;1.27;;
44110;SDS011;29774;52.664;5.074;2023-04-03T02:45:58;3.88;;;1.20;;
44110;SDS011;29774;52.664;5.074;2023-04-03T02:48:24;2.25;;;1.23;;
44110;SDS011;29774;52.664;5.074;2023-04-03T02:50:50;1.58;;;1.00;;
44110;SDS011;29774;52.664;5.074;2023-04-03T02:53:16;3.78;;;1.08;;
44110;SDS011;29774;52.664;5.074;2023-04-03T02:55:42;4.20;;;1.50;;
44110;SDS011;29774;52.664;5.074;2023-04-03T02:58:07;4.13;;;1.27;;
44110;SDS011;29774;52.664;5.074;2023-04-03T03:00:33;3.38;;;1.17;;
44110;SDS011;29774;52.664;5.074;2023-04-03T03:02:59;2.30;;;0.90;;
44110;SDS011;29774;52.664;5.074;2023-04-03T03:05:25;1.63;;;1.45;;
44110;SDS011;29774;52.664;5.074;2023-04-03T03:07:52;3.80;;;1.20;;
44110;SDS011;29774;52.664;5.074;2023-04-03T03:10:18;3.50;;;1.58;;
44110;SDS011;29774;52.664;5.074;2023-04-03T03:12:44;1.77;;;1.45;;
44110;SDS011;29774;52.664;5.074;2023-04-03T03:15:10;2.15;;;1.45;;
44110;SDS011;29774;52.664;5.074;2023-04-03T03:17:36;1.90;;;1.30;;
44110;SDS011;29774;52.664;5.074;2023-04-03T03:20:02;4.68;;;1.55;;
44110;SDS011;29774;52.664;5.074;2023-04-03T03:22:29;2.17;;;1.20;;
44110;SDS011;29774;52.664;5.074;2023-04-03T03:24:55;4.22;;;1.35;;
44110;SDS011;29774;52.664;5.074;2023-04-03T03:27:20;2.42;;;1.17;;
44110;SDS011;29774;52.664;5.074;2023-04-03T03:29:46;3.03;;;1.40;;
44110;SDS011;29774;52.664;5.074;2023-04-03T03:32:12;1.95;;;1.10;;
44110;SDS011;29774;52.664;5.074;2023-04-03T03:34:37;4.13;;;1.55;;
44110;SDS011;29774;52.664;5.074;2023-04-03T03:37:03;3.13;;;1.42;;
44110;SDS011;29774;52.664;5.074;2023-04-03T03:39:29;2.35;;;1.35;;
44110;SDS011;29774;52.664;5.074;2023-04-03T03:41:55;2.42;;;1.23;;
44110;SDS011;29774;52.664;5.074;2023-04-03T03:44:20;3.15;;;1.75;;
44110;SDS011;29774;52.664;5.074;2023-04-03T03:46:46;2.30;;;1.23;;
44110;SDS011;29774;52.664;5.074;2023-04-03T03:49:11;3.72;;;1.33;;
44110;SDS011;29774;52.664;5.074;2023-04-03T03:51:38;3.10;;;1.25;;
44110;SDS011;29774;52.664;5.074;2023-04-03T03:54:04;2.25;;;1.83;;
44110;SDS011;29774;52.664;5.074;2023-04-03T03:56:30;3.70;;;1.30;;
44110;SDS011;29774;52.664;5.074;2023-04-03T03:58:56;3.95;;;1.65;;
44110;SDS011;29774;52.664;5.074;2023-04-03T04:01:22;3.13;;;1.30;;
44110;SDS011;29774;52.664;5.074;2023-04-03T04:03:48;1.58;;;1.00;;
44110;SDS011;29774;52.664;5.074;2023-04-03T04:06:15;1.88;;;1.23;;
44110;SDS011;29774;52.664;5.074;2023-04-03T04:08:41;2.90;;;1.42;;
44110;SDS011;29774;52.664;5.074;2023-04-03T04:11:06;3.00;;;1.40;;
44110;SDS011;29774;52.664;5.074;2023-04-03T04:13:32;2.65;;;1.33;;
44110;SDS011;29774;52.664;5.074;2023-04-03T04:15:58;1.23;;;1.02;;
44110;SDS011;29774;52.664;5.074;2023-04-03T04:18:24;4.35;;;1.60;;
44110;SDS011;29774;52.664;5.074;2023-04-03T04:20:50;3.47;;;1.75;;
44110;SDS011;29774;52.664;5.074;2023-04-03T04:23:16;2.45;;;1.20;;
44110;SDS011;29774;52.664;5.074;2023-04-03T04:25:46;2.47;;;0.93;;
44110;SDS011;29774;52.664;5.074;2023-04-03T04:28:12;3.08;;;1.55;;
44110;SDS011;29774;52.664;5.074;2023-04-03T04:30:38;2.30;;;1.30;;
44110;SDS011;29774;52.664;5.074;2023-04-03T04:33:04;3.85;;;1.40;;
44110;SDS011;29774;52.664;5.074;2023-04-03T04:35:30;2.20;;;1.13;;
44110;SDS011;29774;52.664;5.074;2023-04-03T04:37:55;3.92;;;1.42;;
44110;SDS011;29774;52.664;5.074;2023-04-03T04:40:21;2.85;;;1.55;;
44110;SDS011;29774;52.664;5.074;2023-04-03T04:42:47;5.88;;;1.33;;
44110;SDS011;29774;52.664;5.074;2023-04-03T04:45:13;3.88;;;1.27;;
44110;SDS011;29774;52.664;5.074;2023-04-03T04:47:39;3.30;;;1.23;;
44110;SDS011;29774;52.664;5.074;2023-04-03T04:50:05;2.95;;;1.20;;
44110;SDS011;29774;52.664;5.074;2023-04-03T04:52:32;5.47;;;1.58;;
44110;SDS011;29774;52.664;5.074;2023-04-03T04:54:57;3.55;;;1.67;;
44110;SDS011;29774;52.664;5.074;2023-04-03T04:57:23;2.35;;;1.15;;
44110;SDS011;29774;52.664;5.074;2023-04-03T04:59:49;2.13;;;1.40;;
44110;SDS011;29774;52.664;5.074;2023-04-03T05:02:14;3.08;;;1.48;;
44110;SDS011;29774;52.664;5.074;2023-04-03T05:04:40;2.63;;;1.80;;
44110;SDS011;29774;52.664;5.074;2023-04-03T05:07:06;3.70;;;1.67;;
44110;SDS011;29774;52.664;5.074;2023-04-03T05:09:31;4.57;;;1.90;;
44110;SDS011;29774;52.664;5.074;2023-04-03T05:11:57;2.97;;;1.60;;
44110;SDS011;29774;52.664;5.074;2023-04-03T05:14:23;5.25;;;1.80;;
44110;SDS011;29774;52.664;5.074;2023-04-03T05:16:48;2.88;;;1.40;;
44110;SDS011;29774;52.664;5.074;2023-04-03T05:19:17;1.65;;;1.42;;
44110;SDS011;29774;52.664;5.074;2023-04-03T05:21:43;5.85;;;2.10;;
44110;SDS011;29774;52.664;5.074;2023-04-03T05:24:09;3.33;;;1.90;;
44110;SDS011;29774;52.664;5.074;2023-04-03T05:26:34;2.60;;;1.63;;
44110;SDS011;29774;52.664;5.074;2023-04-03T05:29:00;3.00;;;1.67;;
44110;SDS011;29774;52.664;5.074;2023-04-03T05:31:26;2.28;;;1.30;;
44110;SDS011;29774;52.664;5.074;2023-04-03T05:33:54;5.82;;;1.80;;
44110;SDS011;29774;52.664;5.074;2023-04-03T05:36:20;3.65;;;1.30;;
44110;SDS011;29774;52.664;5.074;2023-04-03T05:38:46;6.28;;;1.80;;
44110;SDS011;29774;52.664;5.074;2023-04-03T05:41:13;5.78;;;1.83;;
44110;SDS011;29774;52.664;5.074;2023-04-03T05:43:39;7.70;;;2.50;;
44110;SDS011;29774;52.664;5.074;2023-04-03T05:46:12;5.32;;;1.67;;
44110;SDS011;29774;52.664;5.074;2023-04-03T05:48:40;2.83;;;1.88;;
44110;SDS011;29774;52.664;5.074;2023-04-03T05:51:06;4.15;;;1.60;;
44110;SDS011;29774;52.664;5.074;2023-04-03T05:53:33;4.40;;;1.60;;
44110;SDS011;29774;52.664;5.074;2023-04-03T05:56:02;5.68;;;1.65;;
44110;SDS011;29774;52.664;5.074;2023-04-03T05:58:28;2.85;;;1.50;;
44110;SDS011;29774;52.664;5.074;2023-04-03T06:00:54;4.55;;;1.80;;
44110;SDS011;29774;52.664;5.074;2023-04-03T06:03:20;5.80;;;1.60;;
44110;SDS011;29774;52.664;5.074;2023-04-03T06:05:46;3.70;;;1.20;;
44110;SDS011;29774;52.664;5.074;2023-04-03T06:08:11;2.47;;;1.30;;
44110;SDS011;29774;52.664;5.074;2023-04-03T06:10:37;3.25;;;1.45;;
44110;SDS011;29774;52.664;5.074;2023-04-03T06:13:03;3.13;;;1.90;;
44110;SDS011;29774;52.664;5.074;2023-04-03T06:15:29;6.30;;;1.73;;
44110;SDS011;29774;52.664;5.074;2023-04-03T06:17:55;6.15;;;1.73;;
44110;SDS011;29774;52.664;5.074;2023-04-03T06:20:21;3.83;;;1.70;;
44110;SDS011;29774;52.664;5.074;2023-04-03T06:22:47;4.13;;;1.77;;
44110;SDS011;29774;52.664;5.074;2023-04-03T06:25:13;2.55;;;1.80;;
44110;SDS011;29774;52.664;5.074;2023-04-03T06:27:38;5.10;;;1.60;;
44110;SDS011;29774;52.664;5.074;2023-04-03T06:30:05;4.93;;;1.70;;
44110;SDS011;29774;52.664;5.074;2023-04-03T06:32:31;5.10;;;1.55;;
44110;SDS011;29774;52.664;5.074;2023-04-03T06:34:57;5.20;;;1.60;;
44110;SDS011;29774;52.664;5.074;2023-04-03T06:37:23;2.25;;;1.30;;
44110;SDS011;29774;52.664;5.074;2023-04-03T06:39:53;3.03;;;1.70;;
44110;SDS011;29774;52.664;5.074;2023-04-03T06:42:19;4.63;;;1.58;;
44110;SDS011;29774;52.664;5.074;2023-04-03T06:44:45;6.40;;;1.50;;
44110;SDS011;29774;52.664;5.074;2023-04-03T06:47:12;3.38;;;1.50;;
44110;SDS011;29774;52.664;5.074;2023-04-03T06:49:39;2.88;;;1.50;;
44110;SDS011;29774;52.664;5.074;2023-04-03T06:52:05;3.72;;;1.60;;
44110;SDS011;29774;52.664;5.074;2023-04-03T06:54:31;4.85;;;1.70;;
44110;SDS011;29774;52.664;5.074;2023-04-03T06:56:57;2.80;;;1.40;;
44110;SDS011;29774;52.664;5.074;2023-04-03T06:59:22;6.10;;;1.83;;
44110;SDS011;29774;52.664;5.074;2023-04-03T07:01:48;2.83;;;1.70;;
44110;SDS011;29774;52.664;5.074;2023-04-03T07:04:14;3.88;;;2.03;;
44110;SDS011;29774;52.664;5.074;2023-04-03T07:06:40;4.93;;;2.05;;
44110;SDS011;29774;52.664;5.074;2023-04-03T07:09:07;4.15;;;1.60;;
44110;SDS011;29774;52.664;5.074;2023-04-03T07:11:33;5.60;;;2.10;;
44110;SDS011;29774;52.664;5.074;2023-04-03T07:13:59;4.18;;;1.50;;
44110;SDS011;29774;52.664;5.074;2023-04-03T07:16:25;5.93;;;1.88;;
44110;SDS011;29774;52.664;5.074;2023-04-03T07:18:50;4.40;;;1.92;;
44110;SDS011;29774;52.664;5.074;2023-04-03T07:21:16;3.17;;;1.70;;
44110;SDS011;29774;52.664;5.074;2023-04-03T07:23:42;3.45;;;1.73;;
44110;SDS011;29774;52.664;5.074;2023-04-03T07:26:07;4.75;;;1.60;;
44110;SDS011;29774;52.664;5.074;2023-04-03T07:28:34;2.70;;;1.88;;
44110;SDS011;29774;52.664;5.074;2023-04-03T07:31:01;6.38;;;2.30;;
44110;SDS011;29774;52.664;5.074;2023-04-03T07:33:28;2.97;;;1.77;;
44110;SDS011;29774;52.664;5.074;2023-04-03T07:35:54;3.10;;;1.60;;
44110;SDS011;29774;52.664;5.074;2023-04-03T07:38:20;7.90;;;1.92;;
44110;SDS011;29774;52.664;5.074;2023-04-03T07:40:47;4.88;;;1.70;;
44110;SDS011;29774;52.664;5.074;2023-04-03T07:43:14;4.05;;;1.75;;
44110;SDS011;29774;52.664;5.074;2023-04-03T07:45:40;6.40;;;2.15;;
44110;SDS011;29774;52.664;5.074;2023-04-03T07:48:06;4.43;;;1.75;;
44110;SDS011;29774;52.664;5.074;2023-04-03T07:50:32;3.55;;;1.65;;
44110;SDS011;29774;52.664;5.074;2023-04-03T07:52:57;3.50;;;1.85;;
44110;SDS011;29774;52.664;5.074;2023-04-03T07:55:23;3.85;;;1.70;;
44110;SDS011;29774;52.664;5.074;2023-04-03T07:57:50;5.72;;;2.38;;
44110;SDS011;29774;52.664;5.074;2023-04-03T08:00:16;4.75;;;2.03;;
44110;SDS011;29774;52.664;5.074;2023-04-03T08:02:43;3.13;;;2.13;;
44110;SDS011;29774;52.664;5.074;2023-04-03T08:05:09;2.90;;;1.88;;
44110;SDS011;29774;52.664;5.074;2023-04-03T08:07:36;2.22;;;1.35;;
44110;SDS011;29774;52.664;5.074;2023-04-03T08:10:02;2.20;;;1.58;;
44110;SDS011;29774;52.664;5.074;2023-04-03T08:12:28;6.15;;;2.53;;
44110;SDS011;29774;52.664;5.074;2023-04-03T08:14:54;2.92;;;1.70;;
44110;SDS011;29774;52.664;5.074;2023-04-03T08:17:20;4.25;;;2.25;;
44110;SDS011;29774;52.664;5.074;2023-04-03T08:19:46;4.18;;;1.90;;
44110;SDS011;29774;52.664;5.074;2023-04-03T08:22:12;2.75;;;1.85;;
44110;SDS011;29774;52.664;5.074;2023-04-03T08:24:38;5.55;;;2.67;;
44110;SDS011;29774;52.664;5.074;2023-04-03T08:27:03;5.13;;;1.95;;
44110;SDS011;29774;52.664;5.074;2023-04-03T08:29:29;3.92;;;2.00;;
44110;SDS011;29774;52.664;5.074;2023-04-03T08:31:54;3.55;;;1.85;;
44110;SDS011;29774;52.664;5.074;2023-04-03T08:34:20;4.53;;;2.10;;
44110;SDS011;29774;52.664;5.074;2023-04-03T08:36:46;2.53;;;1.45;;
44110;SDS011;29774;52.664;5.074;2023-04-03T08:39:12;3.05;;;1.75;;
44110;SDS011;29774;52.664;5.074;2023-04-03T08:41:39;4.88;;;1.77;;
44110;SDS011;29774;52.664;5.074;2023-04-03T08:50:06;2.22;;;1.30;;
44110;SDS011;29774;52.664;5.074;2023-04-03T08:52:50;1.77;;;1.35;;
44110;SDS011;29774;52.664;5.074;2023-04-03T08:58:00;2.63;;;1.40;;
44110;SDS011;29774;52.664;5.074;2023-04-03T09:00:27;2.83;;;1.23;;
44110;SDS011;29774;52.664;5.074;2023-04-03T09:02:57;4.40;;;1.95;;
44110;SDS011;29774;52.664;5.074;2023-04-03T09:05:29;2.40;;;1.38;;
44110;SDS011;29774;52.664;5.074;2023-04-03T09:07:58;1.60;;;0.90;;
44110;SDS011;29774;52.664;5.074;2023-04-03T09:10:30;3.83;;;1.40;;
44110;SDS011;29774;52.664;5.074;2023-04-03T09:13:05;2.70;;;1.23;;
44110;SDS011;29774;52.664;5.074;2023-04-03T09:15:56;3.47;;;1.10;;
44110;SDS011;29774;52.664;5.074;2023-04-03T09:18:32;2.42;;;1.17;;
44110;SDS011;29774;52.664;5.074;2023-04-03T09:21:08;1.80;;;0.98;;
44110;SDS011;29774;52.664;5.074;2023-04-03T09:23:46;1.85;;;1.02;;
44110;SDS011;29774;52.664;5.074;2023-04-03T09:26:25;2.97;;;1.25;;
44110;SDS011;29774;52.664;5.074;2023-04-03T09:29:20;1.10;;;1.00;;
44110;SDS011;29774;52.664;5.074;2023-04-03T09:31:48;1.73;;;0.90;;
44110;SDS011;29774;52.664;5.074;2023-04-03T09:34:19;2.28;;;1.08;;
44110;SDS011;29774;52.664;5.074;2023-04-03T09:36:55;2.80;;;1.15;;
44110;SDS011;29774;52.664;5.074;2023-04-03T09:39:26;1.88;;;0.93;;
44110;SDS011;29774;52.664;5.074;2023-04-03T09:41:57;2.30;;;1.00;;
44110;SDS011;29774;52.664;5.074;2023-04-03T09:44:35;2.35;;;1.02;;
44110;SDS011;29774;52.664;5.074;2023-04-03T09:47:45;3.65;;;1.20;;
44110;SDS011;29774;52.664;5.074;2023-04-03T09:52:43;2.28;;;0.93;;
44110;SDS011;29774;52.664;5.074;2023-04-03T09:55:18;2.88;;;1.02;;
44110;SDS011;29774;52.664;5.074;2023-04-03T09:57:52;1.75;;;0.90;;
44110;SDS011;29774;52.664;5.074;2023-04-03T10:00:20;3.80;;;1.35;;
44110;SDS011;29774;52.664;5.074;2023-04-03T10:02:54;2.65;;;1.17;;
44110;SDS011;29774;52.664;5.074;2023-04-03T10:10:41;1.70;;;0.70;;
44110;SDS011;29774;52.664;5.074;2023-04-03T10:13:11;2.88;;;0.70;;
44110;SDS011;29774;52.664;5.074;2023-04-03T10:15:58;1.42;;;0.75;;
44110;SDS011;29774;52.664;5.074;2023-04-03T10:18:33;2.90;;;0.85;;
44110;SDS011;29774;52.664;5.074;2023-04-03T10:24:17;2.90;;;0.70;;
44110;SDS011;29774;52.664;5.074;2023-04-03T10:27:31;0.82;;;0.65;;
44110;SDS011;29774;52.664;5.074;2023-04-03T10:30:19;1.13;;;0.98;;
44110;SDS011;29774;52.664;5.074;2023-04-03T10:35:49;1.55;;;0.80;;
44110;SDS011;29774;52.664;5.074;2023-04-03T10:38:33;2.00;;;0.88;;
44110;SDS011;29774;52.664;5.074;2023-04-03T10:41:38;0.65;;;0.65;;
44110;SDS011;29774;52.664;5.074;2023-04-03T10:47:05;1.67;;;0.90;;
44110;SDS011;29774;52.664;5.074;2023-04-03T10:52:28;1.27;;;0.80;;
44110;SDS011;29774;52.664;5.074;2023-04-03T10:58:09;1.83;;;0.63;;
44110;SDS011;29774;52.664;5.074;2023-04-03T11:01:07;1.23;;;0.75;;
44110;SDS011;29774;52.664;5.074;2023-04-03T11:03:41;2.03;;;0.75;;
44110;SDS011;29774;52.664;5.074;2023-04-03T11:06:15;2.75;;;0.80;;
44110;SDS011;29774;52.664;5.074;2023-04-03T11:11:43;4.55;;;1.00;;
44110;SDS011;29774;52.664;5.074;2023-04-03T11:16:48;1.42;;;0.80;;
44110;SDS011;29774;52.664;5.074;2023-04-03T11:19:31;4.35;;;0.95;;
44110;SDS011;29774;52.664;5.074;2023-04-03T11:22:16;0.63;;;0.63;;
44110;SDS011;29774;52.664;5.074;2023-04-03T11:27:48;1.13;;;0.73;;
44110;SDS011;29774;52.664;5.074;2023-04-03T11:35:36;2.55;;;0.93;;
44110;SDS011;29774;52.664;5.074;2023-04-03T11:38:10;4.60;;;0.70;;
44110;SDS011;29774;52.664;5.074;2023-04-03T11:40:44;2.70;;;0.80;;
44110;SDS011;29774;52.664;5.074;2023-04-03T11:43:55;1.65;;;0.80;;
44110;SDS011;29774;52.664;5.074;2023-04-03T11:46:06;1.10;;;0.80;;
44110;SDS011;29774;52.664;5.074;2023-04-03T11:53:41;2.63;;;1.00;;
44110;SDS011;29774;52.664;5.074;2023-04-03T12:04:13;1.63;;;1.17;;
44110;SDS011;29774;52.664;5.074;2023-04-03T12:11:56;2.08;;;0.80;;
44110;SDS011;29774;52.664;5.074;2023-04-03T12:14:25;2.03;;;0.75;;
44110;SDS011;29774;52.664;5.074;2023-04-03T12:16:55;2.17;;;0.93;;
44110;SDS011;29774;52.664;5.074;2023-04-03T12:19:33;3.28;;;0.60;;
44110;SDS011;29774;52.664;5.074;2023-04-03T12:22:06;1.42;;;0.80;;
44110;SDS011;29774;52.664;5.074;2023-04-03T12:24:38;1.48;;;1.35;;
44110;SDS011;29774;52.664;5.074;2023-04-03T12:30:04;2.15;;;0.90;;
44110;SDS011;29774;52.664;5.074;2023-04-03T12:33:38;1.30;;;0.80;;
44110;SDS011;29774;52.664;5.074;2023-04-03T12:35:46;1.83;;;0.90;;
44110;SDS011;29774;52.664;5.074;2023-04-03T12:46:54;1.90;;;0.82;;
44110;SDS011;29774;52.664;5.074;2023-04-03T12:51:57;2.00;;;0.90;;
44110;SDS011;29774;52.664;5.074;2023-04-03T12:54:42;0.80;;;0.52;;
44110;SDS011;29774;52.664;5.074;2023-04-03T12:59:37;2.00;;;1.10;;
44110;SDS011;29774;52.664;5.074;2023-04-03T13:02:03;1.38;;;0.70;;
44110;SDS011;29774;52.664;5.074;2023-04-03T13:04:42;1.10;;;0.80;;
44110;SDS011;29774;52.664;5.074;2023-04-03T13:07:18;0.88;;;0.65;;
44110;SDS011;29774;52.664;5.074;2023-04-03T13:12:52;1.70;;;0.90;;
44110;SDS011;29774;52.664;5.074;2023-04-03T13:17:55;2.10;;;1.25;;
44110;SDS011;29774;52.664;5.074;2023-04-03T13:20:26;2.92;;;0.90;;
44110;SDS011;29774;52.664;5.074;2023-04-03T13:22:59;2.08;;;1.08;;
44110;SDS011;29774;52.664;5.074;2023-04-03T13:25:28;0.88;;;0.75;;
44110;SDS011;29774;52.664;5.074;2023-04-03T13:27:56;2.97;;;1.10;;
44110;SDS011;29774;52.664;5.074;2023-04-03T13:30:29;3.35;;;1.50;;
44110;SDS011;29774;52.664;5.074;2023-04-03T13:32:58;2.42;;;1.00;;
44110;SDS011;29774;52.664;5.074;2023-04-03T13:35:30;2.08;;;0.95;;
44110;SDS011;29774;52.664;5.074;2023-04-03T13:37:57;4.28;;;1.00;;
44110;SDS011;29774;52.664;5.074;2023-04-03T13:40:25;1.08;;;0.85;;
44110;SDS011;29774;52.664;5.074;2023-04-03T13:46:35;2.72;;;1.10;;
44110;SDS011;29774;52.664;5.074;2023-04-03T13:48:44;3.00;;;0.85;;
44110;SDS011;29774;52.664;5.074;2023-04-03T13:54:15;2.67;;;1.30;;
44110;SDS011;29774;52.664;5.074;2023-04-03T13:56:42;2.05;;;0.90;;
44110;SDS011;29774;52.664;5.074;2023-04-03T14:01:47;3.65;;;1.23;;
44110;SDS011;29774;52.664;5.074;2023-04-03T14:04:18;1.23;;;0.80;;
44110;SDS011;29774;52.664;5.074;2023-04-03T14:06:46;1.52;;;0.90;;
44110;SDS011;29774;52.664;5.074;2023-04-03T14:09:13;1.70;;;0.88;;
44110;SDS011;29774;52.664;5.074;2023-04-03T14:11:40;4.00;;;1.30;;
44110;SDS011;29774;52.664;5.074;2023-04-03T14:14:14;4.18;;;1.20;;
44110;SDS011;29774;52.664;5.074;2023-04-03T14:16:46;3.28;;;1.15;;
44110;SDS011;29774;52.664;5.074;2023-04-03T14:19:17;1.63;;;1.02;;
44110;SDS011;29774;52.664;5.074;2023-04-03T14:21:52;1.58;;;1.00;;
44110;SDS011;29774;52.664;5.074;2023-04-03T14:24:19;1.38;;;0.80;;
44110;SDS011;29774;52.664;5.074;2023-04-03T14:26:47;4.40;;;1.20;;
44110;SDS011;29774;52.664;5.074;2023-04-03T14:29:14;2.55;;;0.90;;
44110;SDS011;29774;52.664;5.074;2023-04-03T14:31:42;1.27;;;1.05;;
44110;SDS011;29774;52.664;5.074;2023-04-03T14:34:09;0.95;;;0.70;;
44110;SDS011;29774;52.664;5.074;2023-04-03T14:36:36;1.73;;;1.00;;
44110;SDS011;29774;52.664;5.074;2023-04-03T14:39:04;1.58;;;0.77;;
44110;SDS011;29774;52.664;5.074;2023-04-03T14:41:30;0.75;;;0.70;;
44110;SDS011;29774;52.664;5.074;2023-04-03T14:43:55;2.38;;;1.10;;
44110;SDS011;29774;52.664;5.074;2023-04-03T14:46:24;2.72;;;1.20;;
44110;SDS011;29774;52.664;5.074;2023-04-03T14:48:54;1.52;;;1.10;;
44110;SDS011;29774;52.664;5.074;2023-04-03T14:51:20;2.30;;;1.10;;
44110;SDS011;29774;52.664;5.074;2023-04-03T14:53:46;1.70;;;0.90;;
44110;SDS011;29774;52.664;5.074;2023-04-03T14:56:16;3.17;;;1.10;;
44110;SDS011;29774;52.664;5.074;2023-04-03T14:58:46;1.83;;;0.85;;
44110;SDS011;29774;52.664;5.074;2023-04-03T15:01:15;1.45;;;0.90;;
44110;SDS011;29774;52.664;5.074;2023-04-03T15:03:42;2.85;;;0.95;;
44110;SDS011;29774;52.664;5.074;2023-04-03T15:06:11;2.03;;;1.05;;
44110;SDS011;29774;52.664;5.074;2023-04-03T15:08:38;2.65;;;0.90;;
44110;SDS011;29774;52.664;5.074;2023-04-03T15:11:06;3.65;;;1.17;;
44110;SDS011;29774;52.664;5.074;2023-04-03T15:13:32;2.42;;;1.05;;
44110;SDS011;29774;52.664;5.074;2023-04-03T15:15:58;1.23;;;0.95;;
44110;SDS011;29774;52.664;5.074;2023-04-03T15:18:24;1.73;;;1.40;;
44110;SDS011;29774;52.664;5.074;2023-04-03T15:20:52;1.92;;;0.98;;
44110;SDS011;29774;52.664;5.074;2023-04-03T15:23:19;2.00;;;1.20;;
44110;SDS011;29774;52.664;5.074;2023-04-03T15:25:45;1.65;;;1.02;;
44110;SDS011;29774;52.664;5.074;2023-04-03T15:28:24;1.92;;;1.10;;
44110;SDS011;29774;52.664;5.074;2023-04-03T15:30:55;1.70;;;1.15;;
44110;SDS011;29774;52.664;5.074;2023-04-03T15:33:22;3.28;;;1.08;;
44110;SDS011;29774;52.664;5.074;2023-04-03T15:35:47;1.90;;;1.10;;
44110;SDS011;29774;52.664;5.074;2023-04-03T15:38:13;1.10;;;0.90;;
44110;SDS011;29774;52.664;5.074;2023-04-03T15:40:39;1.95;;;1.00;;
44110;SDS011;29774;52.664;5.074;2023-04-03T15:43:06;3.00;;;1.33;;
44110;SDS011;29774;52.664;5.074;2023-04-03T15:45:32;2.33;;;1.75;;
44110;SDS011;29774;52.664;5.074;2023-04-03T15:48:00;3.60;;;1.00;;
44110;SDS011;29774;52.664;5.074;2023-04-03T15:50:26;3.28;;;1.38;;
44110;SDS011;29774;52.664;5.074;2023-04-03T15:52:52;1.83;;;1.08;;
44110;SDS011;29774;52.664;5.074;2023-04-03T15:55:23;2.63;;;0.80;;
44110;SDS011;29774;52.664;5.074;2023-04-03T15:57:49;2.85;;;1.35;;
44110;SDS011;29774;52.664;5.074;2023-04-03T16:00:15;1.77;;;1.30;;
44110;SDS011;29774;52.664;5.074;2023-04-03T16:02:42;3.92;;;1.40;;
44110;SDS011;29774;52.664;5.074;2023-04-03T16:05:10;3.95;;;2.20;;
44110;SDS011;29774;52.664;5.074;2023-04-03T16:07:39;1.42;;;1.10;;
44110;SDS011;29774;52.664;5.074;2023-04-03T16:10:06;2.17;;;1.38;;
44110;SDS011;29774;52.664;5.074;2023-04-03T16:12:33;2.95;;;1.15;;
44110;SDS011;29774;52.664;5.074;2023-04-03T16:14:59;2.20;;;1.30;;
44110;SDS011;29774;52.664;5.074;2023-04-03T16:17:25;3.20;;;1.58;;
44110;SDS011;29774;52.664;5.074;2023-04-03T16:19:52;2.80;;;1.50;;
44110;SDS011;29774;52.664;5.074;2023-04-03T16:22:19;2.65;;;1.25;;
44110;SDS011;29774;52.664;5.074;2023-04-03T16:24:45;2.13;;;1.23;;
44110;SDS011;29774;52.664;5.074;2023-04-03T16:27:10;4.45;;;1.52;;
44110;SDS011;29774;52.664;5.074;2023-04-03T16:29:36;3.10;;;1.20;;
44110;SDS011;29774;52.664;5.074;2023-04-03T16:32:01;3.22;;;1.50;;
44110;SDS011;29774;52.664;5.074;2023-04-03T16:34:28;8.23;;;1.45;;
44110;SDS011;29774;52.664;5.074;2023-04-03T16:36:55;2.35;;;1.20;;